sensor_id;sensor_type;location;lat;lon;timestamp;pressure;altitude;pressure_sealevel;temperature;humidity
54994;BME280;40891;47.242;8.648;2023-04-04T00:02:05;96703.06;;;2.96;70.43
54994;BME280;40891;47.242;8.648;2023-04-04T00:04:32;96690.47;;;2.98;70.50
54994;BME280;40891;47.242;8.648;2023-04-04T00:06:57;96699.13;;;2.97;69.70
54994;BME280;40891;47.242;8.648;2023-04-04T00:09:23;96693.63;;;2.97;69.94
54994;BME280;40891;47.242;8.648;2023-04-04T00:11:48;96696.78;;;2.92;70.41
54994;BME280;40891;47.242;8.648;2023-04-04T00:14:14;96702.28;;;2.85;70.40
54994;BME280;40891;47.242;8.648;2023-04-04T00:16:40;96699.91;;;2.87;70.80
54994;BME280;40891;47.242;8.648;2023-04-04T00:19:05;96691.28;;;2.95;69.71
54994;BME280;40891;47.242;8.648;2023-04-04T00:21:31;96685.78;;;2.92;70.15
54994;BME280;40891;47.242;8.648;2023-04-04T00:23:56;96685.00;;;2.95;69.98
54994;BME280;40891;47.242;8.648;2023-04-04T00:26:23;96685.81;;;2.78;70.85
54994;BME280;40891;47.242;8.648;2023-04-04T00:28:48;96695.25;;;2.69;72.09
54994;BME280;40891;47.242;8.648;2023-04-04T00:31:14;96691.72;;;2.69;72.24
54994;BME280;40891;47.242;8.648;2023-04-04T00:33:41;96685.03;;;2.66;71.68
54994;BME280;40891;47.242;8.648;2023-04-04T00:36:06;96691.31;;;2.81;71.36
54994;BME280;40891;47.242;8.648;2023-04-04T00:38:31;96689.31;;;2.82;71.92
54994;BME280;40891;47.242;8.648;2023-04-04T00:40:57;96688.94;;;2.80;71.76
54994;BME280;40891;47.242;8.648;2023-04-04T00:43:22;96693.66;;;2.75;72.20
54994;BME280;40891;47.242;8.648;2023-04-04T00:45:49;96682.28;;;2.73;71.66
54994;BME280;40891;47.242;8.648;2023-04-04T00:48:15;96688.16;;;2.75;71.70
54994;BME280;40891;47.242;8.648;2023-04-04T00:50:41;96688.56;;;2.70;71.99
54994;BME280;40891;47.242;8.648;2023-04-04T00:53:07;96689.34;;;2.74;71.84
54994;BME280;40891;47.242;8.648;2023-04-04T00:55:32;96685.81;;;2.70;72.53
54994;BME280;40891;47.242;8.648;2023-04-04T00:57:58;96684.25;;;2.77;71.96
54994;BME280;40891;47.242;8.648;2023-04-04T01:00:24;96680.72;;;2.72;72.13
54994;BME280;40891;47.242;8.648;2023-04-04T01:02:50;96690.16;;;2.64;72.22
54994;BME280;40891;47.242;8.648;2023-04-04T01:05:15;96683.09;;;2.63;72.35
54994;BME280;40891;47.242;8.648;2023-04-04T01:07:41;96681.91;;;2.61;72.62
54994;BME280;40891;47.242;8.648;2023-04-04T01:10:07;96676.03;;;2.59;73.22
54994;BME280;40891;47.242;8.648;2023-04-04T01:12:33;96681.53;;;2.55;72.72
54994;BME280;40891;47.242;8.648;2023-04-04T01:14:58;96685.47;;;2.58;72.63
54994;BME280;40891;47.242;8.648;2023-04-04T01:17:25;96687.41;;;2.50;72.40
54994;BME280;40891;47.242;8.648;2023-04-04T01:20:10;96676.44;;;2.50;72.73
54994;BME280;40891;47.242;8.648;2023-04-04T01:22:38;96681.13;;;2.50;71.56
54994;BME280;40891;47.242;8.648;2023-04-04T01:25:04;96678.00;;;2.44;71.59
54994;BME280;40891;47.242;8.648;2023-04-04T01:27:31;96679.94;;;2.44;72.03
54994;BME280;40891;47.242;8.648;2023-04-04T01:29:56;96670.97;;;2.36;72.28
54994;BME280;40891;47.242;8.648;2023-04-04T01:32:36;96684.28;;;2.34;72.71
54994;BME280;40891;47.242;8.648;2023-04-04T01:35:28;96671.72;;;2.26;73.01
54994;BME280;40891;47.242;8.648;2023-04-04T01:38:13;96670.53;;;2.27;72.72
54994;BME280;40891;47.242;8.648;2023-04-04T01:40:43;96681.53;;;2.24;72.83
54994;BME280;40891;47.242;8.648;2023-04-04T01:43:12;96678.00;;;2.16;74.00
54994;BME280;40891;47.242;8.648;2023-04-04T01:45:38;96673.28;;;2.10;73.89
54994;BME280;40891;47.242;8.648;2023-04-04T01:48:03;96678.00;;;2.13;74.53
54994;BME280;40891;47.242;8.648;2023-04-04T01:50:28;96670.94;;;2.12;74.34
54994;BME280;40891;47.242;8.648;2023-04-04T01:52:54;96670.16;;;2.04;75.73
54994;BME280;40891;47.242;8.648;2023-04-04T01:55:19;96669.75;;;1.98;75.00
54994;BME280;40891;47.242;8.648;2023-04-04T01:57:46;96675.25;;;1.91;75.56
54994;BME280;40891;47.242;8.648;2023-04-04T02:00:12;96670.16;;;1.93;74.97
54994;BME280;40891;47.242;8.648;2023-04-04T02:02:38;96672.88;;;1.86;75.44
54994;BME280;40891;47.242;8.648;2023-04-04T02:05:03;96676.38;;;1.83;75.94
54994;BME280;40891;47.242;8.648;2023-04-04T02:07:29;96673.66;;;1.87;75.75
54994;BME280;40891;47.242;8.648;2023-04-04T02:09:54;96670.88;;;1.80;75.52
54994;BME280;40891;47.242;8.648;2023-04-04T02:12:19;96676.78;;;1.89;75.11
54994;BME280;40891;47.242;8.648;2023-04-04T02:14:46;96678.72;;;1.85;74.61
54994;BME280;40891;47.242;8.648;2023-04-04T02:17:12;96670.13;;;1.86;75.08
54994;BME280;40891;47.242;8.648;2023-04-04T02:19:37;96667.00;;;1.91;74.90
54994;BME280;40891;47.242;8.648;2023-04-04T02:22:03;96676.00;;;1.88;74.57
54994;BME280;40891;47.242;8.648;2023-04-04T02:24:28;96673.25;;;1.85;74.69
54994;BME280;40891;47.242;8.648;2023-04-04T02:26:54;96672.84;;;1.83;75.16
54994;BME280;40891;47.242;8.648;2023-04-04T02:29:19;96675.19;;;1.81;75.83
54994;BME280;40891;47.242;8.648;2023-04-04T02:31:44;96675.97;;;1.78;76.10
54994;BME280;40891;47.242;8.648;2023-04-04T02:34:10;96674.03;;;1.75;74.86
54994;BME280;40891;47.242;8.648;2023-04-04T02:36:35;96669.72;;;1.70;75.46
54994;BME280;40891;47.242;8.648;2023-04-04T02:39:01;96669.28;;;1.68;75.71
54994;BME280;40891;47.242;8.648;2023-04-04T02:41:28;96678.69;;;1.64;74.94
54994;BME280;40891;47.242;8.648;2023-04-04T02:43:54;96669.28;;;1.58;74.82
54994;BME280;40891;47.242;8.648;2023-04-04T02:46:19;96672.41;;;1.56;75.79
54994;BME280;40891;47.242;8.648;2023-04-04T02:48:44;96674.38;;;1.56;76.04
54994;BME280;40891;47.242;8.648;2023-04-04T02:51:09;96670.03;;;1.55;75.99
54994;BME280;40891;47.242;8.648;2023-04-04T02:53:35;96668.47;;;1.47;77.49
54994;BME280;40891;47.242;8.648;2023-04-04T02:56:03;96665.72;;;1.43;77.48
54994;BME280;40891;47.242;8.648;2023-04-04T02:58:32;96662.16;;;1.35;77.51
54994;BME280;40891;47.242;8.648;2023-04-04T03:00:58;96670.75;;;1.37;77.00
54994;BME280;40891;47.242;8.648;2023-04-04T03:03:23;96658.66;;;1.38;77.66
54994;BME280;40891;47.242;8.648;2023-04-04T03:05:49;96663.34;;;1.38;76.63
54994;BME280;40891;47.242;8.648;2023-04-04T03:08:14;96653.56;;;1.37;75.64
54994;BME280;40891;47.242;8.648;2023-04-04T03:10:40;96664.09;;;1.35;76.88
54994;BME280;40891;47.242;8.648;2023-04-04T03:13:05;96660.19;;;1.36;76.89
54994;BME280;40891;47.242;8.648;2023-04-04T03:15:31;96668.00;;;1.30;76.63
54994;BME280;40891;47.242;8.648;2023-04-04T03:17:56;96660.53;;;1.24;77.53
54994;BME280;40891;47.242;8.648;2023-04-04T03:20:23;96660.53;;;1.24;77.35
54994;BME280;40891;47.242;8.648;2023-04-04T03:22:48;96660.13;;;1.18;76.68
54994;BME280;40891;47.242;8.648;2023-04-04T03:25:14;96659.75;;;1.20;77.16
54994;BME280;40891;47.242;8.648;2023-04-04T03:27:40;96666.78;;;1.21;77.50
54994;BME280;40891;47.242;8.648;2023-04-04T03:30:06;96661.31;;;1.17;77.43
54994;BME280;40891;47.242;8.648;2023-04-04T03:32:32;96666.00;;;1.17;77.74
54994;BME280;40891;47.242;8.648;2023-04-04T03:34:58;96669.09;;;1.12;78.05
54994;BME280;40891;47.242;8.648;2023-04-04T03:37:23;96656.59;;;1.14;77.46
54994;BME280;40891;47.242;8.648;2023-04-04T03:39:49;96666.78;;;1.17;77.53
54994;BME280;40891;47.242;8.648;2023-04-04T03:42:14;96660.50;;;1.10;77.85
54994;BME280;40891;47.242;8.648;2023-04-04T03:44:40;96659.69;;;1.09;78.57
54994;BME280;40891;47.242;8.648;2023-04-04T03:47:06;96661.25;;;1.03;78.69
54994;BME280;40891;47.242;8.648;2023-04-04T03:49:31;96660.88;;;1.12;77.67
54994;BME280;40891;47.242;8.648;2023-04-04T03:51:57;96663.97;;;1.03;77.48
54994;BME280;40891;47.242;8.648;2023-04-04T03:54:23;96665.13;;;0.99;77.92
54994;BME280;40891;47.242;8.648;2023-04-04T03:56:48;96670.63;;;1.02;77.99
54994;BME280;40891;47.242;8.648;2023-04-04T03:59:13;96666.31;;;1.01;77.92
54994;BME280;40891;47.242;8.648;2023-04-04T04:01:39;96664.34;;;0.98;77.66
54994;BME280;40891;47.242;8.648;2023-04-04T04:04:04;96663.16;;;0.96;77.64
54994;BME280;40891;47.242;8.648;2023-04-04T04:06:30;96671.75;;;0.94;77.72
54994;BME280;40891;47.242;8.648;2023-04-04T04:08:56;96676.00;;;0.88;77.56
54994;BME280;40891;47.242;8.648;2023-04-04T04:11:22;96672.88;;;0.86;78.47
54994;BME280;40891;47.242;8.648;2023-04-04T04:13:47;96674.78;;;0.79;78.74
54994;BME280;40891;47.242;8.648;2023-04-04T04:16:13;96674.03;;;0.78;79.63
54994;BME280;40891;47.242;8.648;2023-04-04T04:18:38;96675.19;;;0.81;79.29
54994;BME280;40891;47.242;8.648;2023-04-04T04:21:04;96671.28;;;0.82;78.95
54994;BME280;40891;47.242;8.648;2023-04-04T04:23:30;96677.13;;;0.73;78.96
54994;BME280;40891;47.242;8.648;2023-04-04T04:25:55;96668.16;;;0.80;79.66
54994;BME280;40891;47.242;8.648;2023-04-04T04:28:21;96677.88;;;0.70;80.00
54994;BME280;40891;47.242;8.648;2023-04-04T04:30:50;96666.47;;;0.61;79.82
54994;BME280;40891;47.242;8.648;2023-04-04T04:33:16;96685.59;;;0.57;79.70
54994;BME280;40891;47.242;8.648;2023-04-04T04:35:42;96673.47;;;0.55;80.79
54994;BME280;40891;47.242;8.648;2023-04-04T04:38:07;96684.44;;;0.58;80.34
54994;BME280;40891;47.242;8.648;2023-04-04T04:40:33;96687.91;;;0.55;80.90
54994;BME280;40891;47.242;8.648;2023-04-04T04:42:58;96688.31;;;0.54;81.01
54994;BME280;40891;47.242;8.648;2023-04-04T04:45:24;96690.69;;;0.59;81.29
54994;BME280;40891;47.242;8.648;2023-04-04T04:47:50;96694.69;;;0.72;78.54
54994;BME280;40891;47.242;8.648;2023-04-04T04:50:16;96689.56;;;0.67;78.87
54994;BME280;40891;47.242;8.648;2023-04-04T04:52:42;96700.06;;;0.58;79.54
54994;BME280;40891;47.242;8.648;2023-04-04T04:55:07;96704.34;;;0.55;80.50
54994;BME280;40891;47.242;8.648;2023-04-04T04:57:33;96705.88;;;0.53;80.89
54994;BME280;40891;47.242;8.648;2023-04-04T04:59:59;96709.75;;;0.48;81.42
54994;BME280;40891;47.242;8.648;2023-04-04T05:02:25;96707.00;;;0.45;81.58
54994;BME280;40891;47.242;8.648;2023-04-04T05:04:51;96705.81;;;0.46;81.92
54994;BME280;40891;47.242;8.648;2023-04-04T05:07:17;96705.06;;;0.49;81.11
54994;BME280;40891;47.242;8.648;2023-04-04T05:09:42;96714.47;;;0.55;81.25
54994;BME280;40891;47.242;8.648;2023-04-04T05:12:07;96706.38;;;0.65;80.62
54994;BME280;40891;47.242;8.648;2023-04-04T05:14:33;96716.50;;;0.61;80.88
54994;BME280;40891;47.242;8.648;2023-04-04T05:16:58;96712.59;;;0.62;80.98
54994;BME280;40891;47.242;8.648;2023-04-04T05:19:23;96712.69;;;0.73;80.60
54994;BME280;40891;47.242;8.648;2023-04-04T05:21:49;96710.44;;;0.89;80.85
54994;BME280;40891;47.242;8.648;2023-04-04T05:24:14;96712.06;;;1.04;80.02
54994;BME280;40891;47.242;8.648;2023-04-04T05:26:41;96708.97;;;1.06;80.12
54994;BME280;40891;47.242;8.648;2023-04-04T05:29:06;96714.88;;;1.18;78.81
54994;BME280;40891;47.242;8.648;2023-04-04T05:31:32;96719.22;;;1.26;79.20
54994;BME280;40891;47.242;8.648;2023-04-04T05:33:57;96716.13;;;1.31;78.30
54994;BME280;40891;47.242;8.648;2023-04-04T05:36:23;96716.13;;;1.31;77.98
54994;BME280;40891;47.242;8.648;2023-04-04T05:38:48;96722.44;;;1.39;77.00
54994;BME280;40891;47.242;8.648;2023-04-04T05:41:14;96716.22;;;1.53;77.28
54994;BME280;40891;47.242;8.648;2023-04-04T05:43:39;96719.69;;;1.43;76.21
54994;BME280;40891;47.242;8.648;2023-04-04T05:46:04;96722.84;;;1.52;77.39
54994;BME280;40891;47.242;8.648;2023-04-04T05:48:30;96717.41;;;1.59;76.62
54994;BME280;40891;47.242;8.648;2023-04-04T05:50:55;96731.13;;;1.62;76.09
54994;BME280;40891;47.242;8.648;2023-04-04T05:53:21;96727.25;;;1.70;75.29
54994;BME280;40891;47.242;8.648;2023-04-04T05:55:50;96728.78;;;1.64;74.90
54994;BME280;40891;47.242;8.648;2023-04-04T05:58:16;96729.56;;;1.68;74.28
54994;BME280;40891;47.242;8.648;2023-04-04T06:00:42;96721.78;;;1.74;74.86
54994;BME280;40891;47.242;8.648;2023-04-04T06:03:07;96727.28;;;1.88;73.92
54994;BME280;40891;47.242;8.648;2023-04-04T06:05:33;96724.91;;;1.72;75.16
54994;BME280;40891;47.242;8.648;2023-04-04T06:07:58;96727.63;;;1.69;76.10
54994;BME280;40891;47.242;8.648;2023-04-04T06:10:24;96734.31;;;1.75;75.21
54994;BME280;40891;47.242;8.648;2023-04-04T06:12:50;96738.25;;;1.84;74.96
54994;BME280;40891;47.242;8.648;2023-04-04T06:15:15;96735.50;;;1.77;74.54
54994;BME280;40891;47.242;8.648;2023-04-04T06:17:41;96737.06;;;1.75;74.04
54994;BME280;40891;47.242;8.648;2023-04-04T06:20:07;96728.84;;;1.82;73.97
54994;BME280;40891;47.242;8.648;2023-04-04T06:22:32;96739.47;;;2.01;73.68
54994;BME280;40891;47.242;8.648;2023-04-04T06:24:59;96732.03;;;2.01;73.02
54994;BME280;40891;47.242;8.648;2023-04-04T06:27:24;96733.22;;;2.11;71.73
54994;BME280;40891;47.242;8.648;2023-04-04T06:29:49;96736.38;;;2.17;72.41
54994;BME280;40891;47.242;8.648;2023-04-04T06:32:15;96738.34;;;2.23;70.14
54994;BME280;40891;47.242;8.648;2023-04-04T06:34:40;96739.09;;;2.20;71.64
54994;BME280;40891;47.242;8.648;2023-04-04T06:37:05;96739.91;;;2.24;71.17
54994;BME280;40891;47.242;8.648;2023-04-04T06:39:31;96744.59;;;2.27;71.37
54994;BME280;40891;47.242;8.648;2023-04-04T06:41:59;96736.41;;;2.41;71.59
54994;BME280;40891;47.242;8.648;2023-04-04T06:44:24;96737.59;;;2.61;71.19
54994;BME280;40891;47.242;8.648;2023-04-04T06:46:50;96734.44;;;2.63;70.12
54994;BME280;40891;47.242;8.648;2023-04-04T06:49:15;96740.72;;;2.56;69.64
54994;BME280;40891;47.242;8.648;2023-04-04T06:51:40;96732.47;;;2.56;70.16
54994;BME280;40891;47.242;8.648;2023-04-04T06:54:06;96738.38;;;2.69;70.50
54994;BME280;40891;47.242;8.648;2023-04-04T06:56:32;96737.16;;;2.91;69.24
54994;BME280;40891;47.242;8.648;2023-04-04T06:58:57;96739.88;;;3.05;68.75
54994;BME280;40891;47.242;8.648;2023-04-04T07:01:22;96735.97;;;3.24;67.52
54994;BME280;40891;47.242;8.648;2023-04-04T07:03:51;96737.88;;;3.37;67.74
54994;BME280;40891;47.242;8.648;2023-04-04T07:06:17;96735.84;;;3.59;67.62
54994;BME280;40891;47.242;8.648;2023-04-04T07:08:43;96736.56;;;3.74;65.63
54994;BME280;40891;47.242;8.648;2023-04-04T07:11:08;96736.13;;;3.79;65.56
54994;BME280;40891;47.242;8.648;2023-04-04T07:13:34;96740.44;;;3.90;65.63
54994;BME280;40891;47.242;8.648;2023-04-04T07:15:59;96737.56;;;4.11;65.46
54994;BME280;40891;47.242;8.648;2023-04-04T07:18:26;96734.69;;;4.29;63.69
54994;BME280;40891;47.242;8.648;2023-04-04T07:20:51;96732.47;;;4.61;63.38
54994;BME280;40891;47.242;8.648;2023-04-04T07:23:16;96735.22;;;4.61;62.85
54994;BME280;40891;47.242;8.648;2023-04-04T07:25:42;96732.47;;;4.61;63.06
54994;BME280;40891;47.242;8.648;2023-04-04T07:28:07;96730.50;;;4.65;62.01
54994;BME280;40891;47.242;8.648;2023-04-04T07:30:32;96737.59;;;4.63;63.04
54994;BME280;40891;47.242;8.648;2023-04-04T07:32:58;96739.66;;;4.52;62.91
54994;BME280;40891;47.242;8.648;2023-04-04T07:35:24;96733.75;;;4.50;62.37
54994;BME280;40891;47.242;8.648;2023-04-04T07:37:49;96732.25;;;4.38;63.80
54994;BME280;40891;47.242;8.648;2023-04-04T07:40:15;96737.72;;;4.45;63.84
54994;BME280;40891;47.242;8.648;2023-04-04T07:42:44;96744.28;;;4.62;64.05
54994;BME280;40891;47.242;8.648;2023-04-04T07:45:10;96734.38;;;4.75;62.14
54994;BME280;40891;47.242;8.648;2023-04-04T07:47:36;96733.50;;;4.81;61.63
54994;BME280;40891;47.242;8.648;2023-04-04T07:50:03;96738.22;;;4.85;62.25
54994;BME280;40891;47.242;8.648;2023-04-04T07:52:28;96734.38;;;4.75;61.99
54994;BME280;40891;47.242;8.648;2023-04-04T07:54:54;96740.53;;;4.90;60.53
54994;BME280;40891;47.242;8.648;2023-04-04T07:57:20;96743.97;;;5.01;61.11
54994;BME280;40891;47.242;8.648;2023-04-04T07:59:45;96742.66;;;5.16;60.73
54994;BME280;40891;47.242;8.648;2023-04-04T08:02:11;96743.50;;;5.09;61.35
54994;BME280;40891;47.242;8.648;2023-04-04T08:04:37;96742.53;;;5.26;60.50
54994;BME280;40891;47.242;8.648;2023-04-04T08:07:02;96747.88;;;5.03;59.82
54994;BME280;40891;47.242;8.648;2023-04-04T08:09:27;96743.91;;;5.08;59.69
54994;BME280;40891;47.242;8.648;2023-04-04T08:11:58;96740.97;;;5.25;59.23
54994;BME280;40891;47.242;8.648;2023-04-04T08:14:25;96733.88;;;5.62;58.78
54994;BME280;40891;47.242;8.648;2023-04-04T08:16:51;96732.31;;;5.94;57.36
54994;BME280;40891;47.242;8.648;2023-04-04T08:19:16;96736.66;;;6.26;58.56
54994;BME280;40891;47.242;8.648;2023-04-04T08:21:42;96734.78;;;6.46;57.08
54994;BME280;40891;47.242;8.648;2023-04-04T08:24:08;96724.31;;;6.34;55.63
54994;BME280;40891;47.242;8.648;2023-04-04T08:26:33;96729.47;;;6.32;55.54
54994;BME280;40891;47.242;8.648;2023-04-04T08:28:59;96734.16;;;6.35;55.63
54994;BME280;40891;47.242;8.648;2023-04-04T08:31:24;96729.09;;;6.56;57.21
54994;BME280;40891;47.242;8.648;2023-04-04T08:33:49;96733.72;;;6.63;53.66
54994;BME280;40891;47.242;8.648;2023-04-04T08:36:16;96728.88;;;6.70;55.50
54994;BME280;40891;47.242;8.648;2023-04-04T08:38:41;96727.56;;;6.78;57.14
54994;BME280;40891;47.242;8.648;2023-04-04T08:41:08;96728.34;;;7.02;54.83
54994;BME280;40891;47.242;8.648;2023-04-04T08:43:33;96732.28;;;7.24;53.22
54994;BME280;40891;47.242;8.648;2023-04-04T08:46:03;96736.09;;;7.11;53.56
54994;BME280;40891;47.242;8.648;2023-04-04T08:48:29;96730.50;;;7.37;53.54
54994;BME280;40891;47.242;8.648;2023-04-04T08:50:58;96733.22;;;7.61;53.20
54994;BME280;40891;47.242;8.648;2023-04-04T08:53:24;96732.78;;;7.62;53.87
54994;BME280;40891;47.242;8.648;2023-04-04T08:55:52;96733.56;;;7.82;51.37
54994;BME280;40891;47.242;8.648;2023-04-04T08:58:18;96736.03;;;8.16;51.08
54994;BME280;40891;47.242;8.648;2023-04-04T09:00:43;96734.72;;;8.40;51.69
54994;BME280;40891;47.242;8.648;2023-04-04T09:03:30;96723.53;;;8.63;49.73
54994;BME280;40891;47.242;8.648;2023-04-04T09:05:58;96731.16;;;9.08;48.95
54994;BME280;40891;47.242;8.648;2023-04-04T09:08:24;96719.97;;;9.11;48.46
54994;BME280;40891;47.242;8.648;2023-04-04T09:10:51;96716.88;;;9.54;48.15
54994;BME280;40891;47.242;8.648;2023-04-04T09:13:17;96720.19;;;9.78;47.55
54994;BME280;40891;47.242;8.648;2023-04-04T09:15:46;96709.13;;;9.90;46.32
54994;BME280;40891;47.242;8.648;2023-04-04T09:18:12;96714.47;;;9.97;46.98
54994;BME280;40891;47.242;8.648;2023-04-04T09:20:41;96709.34;;;10.37;44.90
54994;BME280;40891;47.242;8.648;2023-04-04T09:23:13;96712.25;;;10.59;45.02
54994;BME280;40891;47.242;8.648;2023-04-04T09:25:52;96719.44;;;10.44;44.09
54994;BME280;40891;47.242;8.648;2023-04-04T09:28:19;96715.25;;;9.98;44.44
54994;BME280;40891;47.242;8.648;2023-04-04T09:30:47;96718.00;;;10.39;44.08
54994;BME280;40891;47.242;8.648;2023-04-04T09:33:14;96709.75;;;10.23;45.63
54994;BME280;40891;47.242;8.648;2023-04-04T09:35:48;96724.31;;;9.57;45.32
54994;BME280;40891;47.242;8.648;2023-04-04T09:38:16;96724.41;;;9.53;44.84
54994;BME280;40891;47.242;8.648;2023-04-04T09:40:43;96708.34;;;10.44;44.47
54994;BME280;40891;47.242;8.648;2023-04-04T09:43:11;96700.38;;;11.18;43.53
54994;BME280;40891;47.242;8.648;2023-04-04T09:45:43;96701.22;;;10.93;42.74
54994;BME280;40891;47.242;8.648;2023-04-04T09:48:09;96709.13;;;10.44;43.25
54994;BME280;40891;47.242;8.648;2023-04-04T09:50:36;96717.41;;;9.78;45.07
54994;BME280;40891;47.242;8.648;2023-04-04T09:53:01;96708.34;;;10.44;42.48
54994;BME280;40891;47.242;8.648;2023-04-04T09:55:36;96700.81;;;10.69;43.35
54994;BME280;40891;47.242;8.648;2023-04-04T09:58:37;96706.56;;;10.50;42.81
54994;BME280;40891;47.242;8.648;2023-04-04T10:01:08;96695.38;;;12.24;39.45
54994;BME280;40891;47.242;8.648;2023-04-04T10:03:36;96683.84;;;13.24;37.29
54994;BME280;40891;47.242;8.648;2023-04-04T10:06:06;96700.00;;;11.75;39.14
54994;BME280;40891;47.242;8.648;2023-04-04T10:08:32;96700.91;;;11.94;39.08
54994;BME280;40891;47.242;8.648;2023-04-04T10:11:02;96706.22;;;11.79;38.71
54994;BME280;40891;47.242;8.648;2023-04-04T10:13:31;96693.94;;;12.42;38.77
54994;BME280;40891;47.242;8.648;2023-04-04T10:15:58;96694.94;;;12.96;37.10
54994;BME280;40891;47.242;8.648;2023-04-04T10:18:25;96699.84;;;12.22;37.55
54994;BME280;40891;47.242;8.648;2023-04-04T10:20:56;96701.44;;;11.67;38.29
54994;BME280;40891;47.242;8.648;2023-04-04T10:23:23;96695.41;;;12.03;37.66
54994;BME280;40891;47.242;8.648;2023-04-04T10:25:50;96677.19;;;14.95;34.64
54994;BME280;40891;47.242;8.648;2023-04-04T10:28:17;96674.34;;;16.87;31.08
54994;BME280;40891;47.242;8.648;2023-04-04T10:30:51;96663.81;;;18.23;28.32
54994;BME280;40891;47.242;8.648;2023-04-04T10:33:34;96658.81;;;19.85;26.14
54994;BME280;40891;47.242;8.648;2023-04-04T10:36:02;96653.88;;;21.22;24.68
54994;BME280;40891;47.242;8.648;2023-04-04T10:38:39;96660.81;;;20.55;24.16
54994;BME280;40891;47.242;8.648;2023-04-04T10:41:06;96649.34;;;21.77;23.40
54994;BME280;40891;47.242;8.648;2023-04-04T10:43:33;96648.69;;;22.06;21.99
54994;BME280;40891;47.242;8.648;2023-04-04T10:46:07;96654.19;;;22.74;22.00
54994;BME280;40891;47.242;8.648;2023-04-04T10:48:35;96651.13;;;23.02;21.24
54994;BME280;40891;47.242;8.648;2023-04-04T10:51:01;96648.91;;;23.92;22.01
54994;BME280;40891;47.242;8.648;2023-04-04T10:53:28;96653.38;;;23.39;20.33
54994;BME280;40891;47.242;8.648;2023-04-04T10:55:53;96658.53;;;23.83;20.42
54994;BME280;40891;47.242;8.648;2023-04-04T10:58:20;96645.25;;;24.15;20.38
54994;BME280;40891;47.242;8.648;2023-04-04T11:00:51;96648.00;;;24.40;20.40
54994;BME280;40891;47.242;8.648;2023-04-04T11:03:16;96647.19;;;23.83;19.54
54994;BME280;40891;47.242;8.648;2023-04-04T11:05:42;96630.94;;;24.40;20.33
54994;BME280;40891;47.242;8.648;2023-04-04T11:08:24;96636.31;;;24.06;20.04
54994;BME280;40891;47.242;8.648;2023-04-04T11:10:51;96634.53;;;24.77;18.62
54994;BME280;40891;47.242;8.648;2023-04-04T11:13:19;96637.84;;;24.94;19.44
54994;BME280;40891;47.242;8.648;2023-04-04T11:16:03;96640.78;;;24.01;19.97
54994;BME280;40891;47.242;8.648;2023-04-04T11:21:02;96643.31;;;22.43;21.40
54994;BME280;40891;47.242;8.648;2023-04-04T11:26:37;96659.16;;;20.09;24.14
54994;BME280;40891;47.242;8.648;2023-04-04T11:29:04;96652.53;;;20.23;24.32
54994;BME280;40891;47.242;8.648;2023-04-04T11:31:42;96649.75;;;20.46;23.52
54994;BME280;40891;47.242;8.648;2023-04-04T11:34:11;96650.00;;;20.37;23.58
54994;BME280;40891;47.242;8.648;2023-04-04T11:39:13;96644.25;;;21.58;22.52
54994;BME280;40891;47.242;8.648;2023-04-04T11:41:55;96636.31;;;22.50;21.37
54994;BME280;40891;47.242;8.648;2023-04-04T11:44:23;96631.19;;;23.61;20.09
54994;BME280;40891;47.242;8.648;2023-04-04T11:49:33;96622.53;;;24.84;18.17
54994;BME280;40891;47.242;8.648;2023-04-04T11:52:03;96616.72;;;26.47;16.48
54994;BME280;40891;47.242;8.648;2023-04-04T11:54:29;96624.22;;;24.74;17.31
54994;BME280;40891;47.242;8.648;2023-04-04T11:56:56;96624.97;;;25.07;18.25
54994;BME280;40891;47.242;8.648;2023-04-04T11:59:22;96622.31;;;25.66;17.90
54994;BME280;40891;47.242;8.648;2023-04-04T12:01:48;96616.41;;;25.91;17.35
54994;BME280;40891;47.242;8.648;2023-04-04T12:04:17;96621.41;;;26.11;16.42
54994;BME280;40891;47.242;8.648;2023-04-04T12:06:46;96619.78;;;25.89;15.97
54994;BME280;40891;47.242;8.648;2023-04-04T12:09:13;96616.41;;;25.91;16.66
54994;BME280;40891;47.242;8.648;2023-04-04T12:11:42;96618.91;;;26.41;16.06
54994;BME280;40891;47.242;8.648;2023-04-04T12:14:15;96612.25;;;25.79;16.56
54994;BME280;40891;47.242;8.648;2023-04-04T12:16:42;96616.19;;;25.62;15.98
54994;BME280;40891;47.242;8.648;2023-04-04T12:19:07;96608.72;;;26.12;16.42
54994;BME280;40891;47.242;8.648;2023-04-04T12:21:32;96610.78;;;26.99;16.19
54994;BME280;40891;47.242;8.648;2023-04-04T12:23:58;96595.84;;;27.14;16.11
54994;BME280;40891;47.242;8.648;2023-04-04T12:26:24;96599.16;;;26.77;17.05
54994;BME280;40891;47.242;8.648;2023-04-04T12:28:54;96592.13;;;26.98;16.46
54994;BME280;40891;47.242;8.648;2023-04-04T12:31:21;96593.88;;;27.86;15.11
54994;BME280;40891;47.242;8.648;2023-04-04T12:33:47;96593.06;;;27.71;15.39
54994;BME280;40891;47.242;8.648;2023-04-04T12:36:12;96601.00;;;26.74;15.38
54994;BME280;40891;47.242;8.648;2023-04-04T12:39:00;96603.47;;;25.63;16.46
54994;BME280;40891;47.242;8.648;2023-04-04T12:41:26;96599.59;;;26.47;15.50
54994;BME280;40891;47.242;8.648;2023-04-04T12:43:59;96605.94;;;26.74;15.77
54994;BME280;40891;47.242;8.648;2023-04-04T12:46:25;96602.19;;;27.20;15.26
54994;BME280;40891;47.242;8.648;2023-04-04T12:48:52;96598.47;;;26.50;15.97
54994;BME280;40891;47.242;8.648;2023-04-04T12:51:18;96588.81;;;27.15;15.80
54994;BME280;40891;47.242;8.648;2023-04-04T12:53:51;96591.28;;;27.11;15.40
54994;BME280;40891;47.242;8.648;2023-04-04T12:56:24;96589.31;;;27.91;13.62
54994;BME280;40891;47.242;8.648;2023-04-04T12:58:51;96587.81;;;28.41;13.40
54994;BME280;40891;47.242;8.648;2023-04-04T13:01:19;96582.78;;;28.18;15.35
54994;BME280;40891;47.242;8.648;2023-04-04T13:03:45;96585.66;;;28.18;14.78
54994;BME280;40891;47.242;8.648;2023-04-04T13:06:17;96586.19;;;29.66;14.13
54994;BME280;40891;47.242;8.648;2023-04-04T13:08:51;96585.25;;;27.43;14.54
54994;BME280;40891;47.242;8.648;2023-04-04T13:11:17;96602.25;;;24.24;17.13
54994;BME280;40891;47.242;8.648;2023-04-04T13:13:42;96600.81;;;25.39;17.49
54994;BME280;40891;47.242;8.648;2023-04-04T13:16:09;96588.19;;;26.47;17.06
54994;BME280;40891;47.242;8.648;2023-04-04T13:18:42;96579.69;;;27.17;14.39